Flight Track Log - Related Links

Times and Time Zones

All times are in EDT time to prevent confusion due to time zone crossing. See the N1250V flight status page for this flight to view local times or setup timezone preferences in your user account.

Time Position Orientation Groundspeed Altitude Reporting Facility
EDT Latitude Longitude Course Direction KTS MPH feet Rate Location/Type
Thu 03:36:51 PM 36.6303 -87.4197 45° Northeast 139 160 1,100  Level Memphis Center
Thu 03:37:58 PM 36.6686 -87.3717 45° Northeast 199 229 3,400 2,189 Climbing Memphis Center
Thu 03:39:19 PM 36.7147 -87.2922 54° Northeast 215 247 6,500 2,383 Climbing Memphis Center
Thu 03:40:19 PM 36.7508 -87.2314 53° Northeast 215 247 9,000 2,200 Climbing Memphis Center
Thu 03:41:19 PM 36.7867 -87.1678 55° Northeast 215 247 10,900 1,850 Climbing Memphis Center
Thu 03:42:19 PM 36.8264 -87.0964 55° Northeast 240 276 12,700 1,750 Climbing Memphis Center
Thu 03:43:19 PM 36.8644 -87.0325 53° Northeast 249 287 14,400 1,800 Climbing Memphis Center
Thu 03:44:19 PM 36.9061 -86.9581 55° Northeast 249 287 16,300 1,650 Climbing Memphis Center
Thu 03:45:19 PM 36.9519 -86.8836 52° Northeast 259 298 17,700 1,250 Climbing Memphis Center
Thu 03:46:19 PM 36.9975 -86.8011 55° Northeast 278 320 18,800 650 Climbing Memphis Center
Thu 03:47:19 PM 37.0469 -86.7103 56° Northeast 306 352 19,000 60 Climbing Memphis Center
Thu 03:49:39 PM 37.1836 -86.4733 54° Northeast 358 412 19,000  Level Indianapolis Center
Thu 03:50:40 PM 37.2433 -86.3669 55° Northeast 365 420 19,000 293 Level Indianapolis Center
Thu 03:51:42 PM 37.3017 -86.2639 55° Northeast 360 414 19,600 968 Climbing Indianapolis Center
Thu 03:52:44 PM 37.3567 -86.1667 55° Northeast 341 392 21,000 683 Climbing Indianapolis Center
Thu 03:53:45 PM 37.4117 -86.0681 55° Northeast 339 390 21,000  Level Indianapolis Center
Thu 03:54:47 PM 37.4694 -85.9644 55° Northeast 354 407 21,000  Level Indianapolis Center
Thu 03:55:49 PM 37.5333 -85.8547 54° Northeast 361 415 21,000  Level Indianapolis Center
Thu 03:56:51 PM 37.6222 -85.7928 29° Northeast 363 418 21,000  Level Indianapolis Center
Thu 03:57:52 PM 37.7153 -85.7492 20° North 358 412 21,000 -49 Level Indianapolis Center
Thu 03:58:54 PM 37.8083 -85.7072 20° North 360 414 20,900  Descending Indianapolis Center
Thu 03:59:56 PM 37.9033 -85.6653 19° North 361 415 21,000 49 Climbing Indianapolis Center
Thu 04:00:57 PM 37.9889 -85.5975 32° Northeast 372 428 21,000 -732 Level Indianapolis Center
Thu 04:01:59 PM 38.0839 -85.4997 39° Northeast 368 423 19,500 -1,790 Descending Indianapolis Center
Thu 04:03:01 PM 38.1611 -85.4194 39° Northeast 362 417 17,300 -2,081 Descending Indianapolis Center
Thu 04:04:03 PM 38.2322 -85.3447 40° Northeast 341 392 15,200 -1,951 Descending Indianapolis Center
Thu 04:05:04 PM 38.3019 -85.2719 39° Northeast 327 376 13,300 -1,707 Descending Indianapolis Center
Thu 04:06:06 PM 38.3681 -85.2022 40° Northeast 313 360 11,700 -1,113 Descending Indianapolis Center
Thu 04:07:08 PM 38.4328 -85.1350 39° Northeast 302 348 11,000 -339 Descending Indianapolis Center
Thu 04:08:10 PM 38.5064 -85.0550 40° Northeast 298 343 11,000  Level Indianapolis Center
Thu 04:09:12 PM 38.5711 -84.9878 39° Northeast 299 344 11,000 -341 Level Indianapolis Center
Thu 04:10:13 PM 38.6225 -84.8989 53° Northeast 309 356 10,300 -878 Descending Indianapolis Center
Thu 04:11:15 PM 38.6517 -84.8108 67° East 292 336 9,200 -1,065 Descending Indianapolis Center
Thu 04:12:17 PM 38.6872 -84.7283 61° Northeast 271 312 8,100 -1,452 Descending Indianapolis Center
Thu 04:13:19 PM 38.7244 -84.6464 60° Northeast 268 308 6,200 -1,935 Descending Indianapolis Center
Thu 04:14:21 PM 38.7703 -84.5669 53° Northeast 267 307 4,100 -1,065 Descending Indianapolis Center
Thu 04:15:23 PM 38.8247 -84.5275 29° Northeast 254 292 4,000 -38 Descending Indianapolis Center
Thu 04:16:58 PM 38.9000 -84.4500 39° Northeast 205 236 4,000  Level Cincinnati TRACON
Thu 04:18:22 PM 38.9667 -84.3833 38° Northeast 226 260 4,000  Level Cincinnati TRACON
Thu 04:19:22 PM 39.0167 -84.3500 27° Northeast 196 226 4,000 -176 Level Cincinnati TRACON
Thu 04:20:04 PM 39.0500 -84.3333 21° North 189 217 3,700 -556 Descending Cincinnati TRACON
Thu 04:21:10 PM 39.1000 -84.3167 15° North 155 178 3,000 -762 Descending Cincinnati TRACON
Thu 04:22:10 PM 39.1333 -84.3500 322° Northwest 141 162 2,100 -1,000 Descending Cincinnati TRACON
Thu 04:23:10 PM 39.1333 -84.4000 270° West 123 142 1,000 -1,100 Descending Cincinnati TRACON

Login

Don't have an account? Register now (free) for customized features, flight alerts, and more!